sensor_id;sensor_type;location;lat;lon;timestamp;P1;durP1;ratioP1;P2;durP2;ratioP2
18214;SDS011;9233;51.312;6.512;2022-07-22T00:00:16;6.20;;;3.10;;
18214;SDS011;9233;51.312;6.512;2022-07-22T00:03:03;5.70;;;2.80;;
18214;SDS011;9233;51.312;6.512;2022-07-22T00:05:50;6.80;;;3.00;;
18214;SDS011;9233;51.312;6.512;2022-07-22T00:08:36;9.10;;;2.90;;
18214;SDS011;9233;51.312;6.512;2022-07-22T00:11:23;4.30;;;3.17;;
18214;SDS011;9233;51.312;6.512;2022-07-22T00:14:09;4.30;;;2.90;;
18214;SDS011;9233;51.312;6.512;2022-07-22T00:16:59;6.73;;;2.90;;
18214;SDS011;9233;51.312;6.512;2022-07-22T00:19:46;9.20;;;2.80;;
18214;SDS011;9233;51.312;6.512;2022-07-22T00:22:32;5.43;;;2.93;;
18214;SDS011;9233;51.312;6.512;2022-07-22T00:25:19;9.10;;;3.47;;
18214;SDS011;9233;51.312;6.512;2022-07-22T00:28:06;6.10;;;2.60;;
18214;SDS011;9233;51.312;6.512;2022-07-22T00:30:52;8.10;;;2.87;;
18214;SDS011;9233;51.312;6.512;2022-07-22T00:33:41;6.53;;;3.20;;
18214;SDS011;9233;51.312;6.512;2022-07-22T00:36:28;5.97;;;3.20;;
18214;SDS011;9233;51.312;6.512;2022-07-22T00:39:15;4.53;;;3.10;;
18214;SDS011;9233;51.312;6.512;2022-07-22T00:42:02;6.87;;;2.70;;
18214;SDS011;9233;51.312;6.512;2022-07-22T00:44:49;8.53;;;3.37;;
18214;SDS011;9233;51.312;6.512;2022-07-22T00:47:37;8.30;;;2.73;;
18214;SDS011;9233;51.312;6.512;2022-07-22T00:50:25;13.50;;;3.40;;
18214;SDS011;9233;51.312;6.512;2022-07-22T00:53:11;5.57;;;3.40;;
18214;SDS011;9233;51.312;6.512;2022-07-22T00:55:58;5.30;;;3.13;;
18214;SDS011;9233;51.312;6.512;2022-07-22T00:58:45;7.97;;;3.60;;
18214;SDS011;9233;51.312;6.512;2022-07-22T01:01:33;6.07;;;3.10;;
18214;SDS011;9233;51.312;6.512;2022-07-22T01:04:20;7.50;;;3.07;;
18214;SDS011;9233;51.312;6.512;2022-07-22T01:07:08;4.30;;;2.90;;
18214;SDS011;9233;51.312;6.512;2022-07-22T01:09:55;5.83;;;2.90;;
18214;SDS011;9233;51.312;6.512;2022-07-22T01:12:41;8.40;;;2.97;;
18214;SDS011;9233;51.312;6.512;2022-07-22T01:15:29;8.03;;;3.27;;
18214;SDS011;9233;51.312;6.512;2022-07-22T01:18:15;5.63;;;3.10;;
18214;SDS011;9233;51.312;6.512;2022-07-22T01:21:04;7.63;;;3.40;;
18214;SDS011;9233;51.312;6.512;2022-07-22T01:23:51;5.07;;;2.80;;
18214;SDS011;9233;51.312;6.512;2022-07-22T01:26:38;7.13;;;3.20;;
18214;SDS011;9233;51.312;6.512;2022-07-22T01:29:25;6.67;;;2.97;;
18214;SDS011;9233;51.312;6.512;2022-07-22T01:32:12;4.93;;;2.90;;
18214;SDS011;9233;51.312;6.512;2022-07-22T01:34:58;6.03;;;3.00;;
18214;SDS011;9233;51.312;6.512;2022-07-22T01:37:46;8.03;;;3.30;;
18214;SDS011;9233;51.312;6.512;2022-07-22T01:40:33;6.87;;;2.57;;
18214;SDS011;9233;51.312;6.512;2022-07-22T01:43:20;4.90;;;2.77;;
18214;SDS011;9233;51.312;6.512;2022-07-22T01:46:07;4.93;;;2.27;;
18214;SDS011;9233;51.312;6.512;2022-07-22T01:48:58;3.47;;;2.00;;
18214;SDS011;9233;51.312;6.512;2022-07-22T01:51:50;3.67;;;2.23;;
18214;SDS011;9233;51.312;6.512;2022-07-22T01:54:38;5.00;;;2.10;;
18214;SDS011;9233;51.312;6.512;2022-07-22T01:57:25;5.07;;;1.67;;
18214;SDS011;9233;51.312;6.512;2022-07-22T02:00:13;4.20;;;2.50;;
18214;SDS011;9233;51.312;6.512;2022-07-22T02:03:04;4.37;;;1.83;;
18214;SDS011;9233;51.312;6.512;2022-07-22T02:05:51;4.10;;;1.90;;
18214;SDS011;9233;51.312;6.512;2022-07-22T02:08:43;6.10;;;2.03;;
18214;SDS011;9233;51.312;6.512;2022-07-22T02:11:36;4.03;;;1.90;;
18214;SDS011;9233;51.312;6.512;2022-07-22T02:14:24;3.07;;;1.83;;
18214;SDS011;9233;51.312;6.512;2022-07-22T02:17:11;5.03;;;1.90;;
18214;SDS011;9233;51.312;6.512;2022-07-22T02:19:58;3.53;;;1.73;;
18214;SDS011;9233;51.312;6.512;2022-07-22T02:22:46;5.23;;;2.33;;
18214;SDS011;9233;51.312;6.512;2022-07-22T02:25:32;7.27;;;2.20;;
18214;SDS011;9233;51.312;6.512;2022-07-22T02:28:21;3.53;;;2.00;;
18214;SDS011;9233;51.312;6.512;2022-07-22T02:31:07;8.63;;;2.07;;
18214;SDS011;9233;51.312;6.512;2022-07-22T02:33:54;4.63;;;2.10;;
18214;SDS011;9233;51.312;6.512;2022-07-22T02:36:42;5.60;;;2.50;;
18214;SDS011;9233;51.312;6.512;2022-07-22T02:39:29;4.73;;;2.07;;
18214;SDS011;9233;51.312;6.512;2022-07-22T02:42:16;5.30;;;2.33;;
18214;SDS011;9233;51.312;6.512;2022-07-22T02:45:08;5.03;;;2.30;;
18214;SDS011;9233;51.312;6.512;2022-07-22T02:47:55;5.00;;;2.30;;
18214;SDS011;9233;51.312;6.512;2022-07-22T02:50:47;6.23;;;2.77;;
18214;SDS011;9233;51.312;6.512;2022-07-22T02:53:39;8.67;;;2.70;;
18214;SDS011;9233;51.312;6.512;2022-07-22T02:56:26;6.83;;;2.57;;
18214;SDS011;9233;51.312;6.512;2022-07-22T02:59:12;4.17;;;2.30;;
18214;SDS011;9233;51.312;6.512;2022-07-22T03:02:01;8.17;;;2.20;;
18214;SDS011;9233;51.312;6.512;2022-07-22T03:04:49;3.17;;;2.40;;
18214;SDS011;9233;51.312;6.512;2022-07-22T03:07:36;5.43;;;2.77;;
18214;SDS011;9233;51.312;6.512;2022-07-22T03:10:23;6.43;;;2.60;;
18214;SDS011;9233;51.312;6.512;2022-07-22T03:13:09;5.27;;;2.50;;
18214;SDS011;9233;51.312;6.512;2022-07-22T03:15:56;5.27;;;2.73;;
18214;SDS011;9233;51.312;6.512;2022-07-22T03:18:44;6.87;;;3.00;;
18214;SDS011;9233;51.312;6.512;2022-07-22T03:21:31;3.70;;;2.73;;
18214;SDS011;9233;51.312;6.512;2022-07-22T03:24:18;5.20;;;2.40;;
18214;SDS011;9233;51.312;6.512;2022-07-22T03:27:04;4.83;;;2.90;;
18214;SDS011;9233;51.312;6.512;2022-07-22T03:29:51;5.70;;;2.90;;
18214;SDS011;9233;51.312;6.512;2022-07-22T03:32:38;7.27;;;2.57;;
18214;SDS011;9233;51.312;6.512;2022-07-22T03:35:31;6.07;;;2.50;;
18214;SDS011;9233;51.312;6.512;2022-07-22T03:38:18;5.03;;;1.97;;
18214;SDS011;9233;51.312;6.512;2022-07-22T03:41:06;3.53;;;1.80;;
18214;SDS011;9233;51.312;6.512;2022-07-22T03:43:52;3.03;;;1.37;;
18214;SDS011;9233;51.312;6.512;2022-07-22T03:46:41;4.67;;;1.20;;
18214;SDS011;9233;51.312;6.512;2022-07-22T03:49:31;4.37;;;1.20;;
18214;SDS011;9233;51.312;6.512;2022-07-22T03:52:19;5.43;;;1.37;;
18214;SDS011;9233;51.312;6.512;2022-07-22T03:55:06;3.83;;;1.23;;
18214;SDS011;9233;51.312;6.512;2022-07-22T03:57:54;1.77;;;1.00;;
18214;SDS011;9233;51.312;6.512;2022-07-22T04:00:45;4.90;;;1.40;;
18214;SDS011;9233;51.312;6.512;2022-07-22T04:03:32;2.17;;;1.10;;
18214;SDS011;9233;51.312;6.512;2022-07-22T04:06:28;3.00;;;1.43;;
18214;SDS011;9233;51.312;6.512;2022-07-22T04:09:22;3.23;;;1.10;;
18214;SDS011;9233;51.312;6.512;2022-07-22T04:12:09;2.83;;;1.20;;
18214;SDS011;9233;51.312;6.512;2022-07-22T04:15:13;3.47;;;1.00;;
18214;SDS011;9233;51.312;6.512;2022-07-22T04:18:00;3.17;;;1.10;;
18214;SDS011;9233;51.312;6.512;2022-07-22T04:20:47;5.53;;;1.20;;
18214;SDS011;9233;51.312;6.512;2022-07-22T04:23:49;3.73;;;1.20;;
18214;SDS011;9233;51.312;6.512;2022-07-22T04:26:43;4.40;;;1.37;;
18214;SDS011;9233;51.312;6.512;2022-07-22T04:29:29;2.77;;;1.00;;
18214;SDS011;9233;51.312;6.512;2022-07-22T04:32:16;3.43;;;1.00;;
18214;SDS011;9233;51.312;6.512;2022-07-22T04:35:04;2.03;;;1.13;;
18214;SDS011;9233;51.312;6.512;2022-07-22T04:37:51;3.13;;;1.00;;
18214;SDS011;9233;51.312;6.512;2022-07-22T04:40:38;4.40;;;1.50;;
18214;SDS011;9233;51.312;6.512;2022-07-22T04:43:26;7.53;;;1.27;;
18214;SDS011;9233;51.312;6.512;2022-07-22T04:46:13;3.83;;;1.00;;
18214;SDS011;9233;51.312;6.512;2022-07-22T04:49:02;2.43;;;1.07;;
18214;SDS011;9233;51.312;6.512;2022-07-22T04:51:48;5.23;;;1.17;;
18214;SDS011;9233;51.312;6.512;2022-07-22T04:54:44;5.67;;;1.03;;
18214;SDS011;9233;51.312;6.512;2022-07-22T04:57:30;1.80;;;0.90;;
18214;SDS011;9233;51.312;6.512;2022-07-22T05:00:20;3.03;;;0.93;;
18214;SDS011;9233;51.312;6.512;2022-07-22T05:03:12;2.20;;;1.30;;
18214;SDS011;9233;51.312;6.512;2022-07-22T05:06:01;2.67;;;1.10;;
18214;SDS011;9233;51.312;6.512;2022-07-22T05:08:53;3.23;;;1.23;;
18214;SDS011;9233;51.312;6.512;2022-07-22T05:11:40;3.87;;;1.00;;
18214;SDS011;9233;51.312;6.512;2022-07-22T05:14:27;4.90;;;1.10;;
18214;SDS011;9233;51.312;6.512;2022-07-22T05:17:15;3.67;;;1.30;;
18214;SDS011;9233;51.312;6.512;2022-07-22T05:20:21;2.60;;;1.00;;
18214;SDS011;9233;51.312;6.512;2022-07-22T05:23:08;8.80;;;1.07;;
18214;SDS011;9233;51.312;6.512;2022-07-22T05:25:56;2.23;;;0.90;;
18214;SDS011;9233;51.312;6.512;2022-07-22T05:28:43;2.43;;;1.00;;
18214;SDS011;9233;51.312;6.512;2022-07-22T05:31:30;4.23;;;1.30;;
18214;SDS011;9233;51.312;6.512;2022-07-22T05:34:18;3.03;;;1.03;;
18214;SDS011;9233;51.312;6.512;2022-07-22T05:37:11;3.73;;;1.30;;
18214;SDS011;9233;51.312;6.512;2022-07-22T05:39:58;3.33;;;1.47;;
18214;SDS011;9233;51.312;6.512;2022-07-22T05:42:44;4.20;;;1.13;;
18214;SDS011;9233;51.312;6.512;2022-07-22T05:45:31;4.60;;;1.10;;
18214;SDS011;9233;51.312;6.512;2022-07-22T05:48:18;4.07;;;1.20;;
18214;SDS011;9233;51.312;6.512;2022-07-22T05:51:11;2.43;;;1.20;;
18214;SDS011;9233;51.312;6.512;2022-07-22T05:53:59;2.10;;;1.40;;
18214;SDS011;9233;51.312;6.512;2022-07-22T05:56:47;3.67;;;1.00;;
18214;SDS011;9233;51.312;6.512;2022-07-22T05:59:34;2.30;;;1.20;;
18214;SDS011;9233;51.312;6.512;2022-07-22T06:02:20;2.63;;;0.87;;
18214;SDS011;9233;51.312;6.512;2022-07-22T06:05:08;4.90;;;1.10;;
18214;SDS011;9233;51.312;6.512;2022-07-22T06:07:58;2.40;;;1.20;;
18214;SDS011;9233;51.312;6.512;2022-07-22T06:10:54;4.97;;;1.13;;
18214;SDS011;9233;51.312;6.512;2022-07-22T06:13:41;4.30;;;1.20;;
18214;SDS011;9233;51.312;6.512;2022-07-22T06:16:28;3.37;;;1.20;;
18214;SDS011;9233;51.312;6.512;2022-07-22T06:19:19;2.77;;;1.03;;
18214;SDS011;9233;51.312;6.512;2022-07-22T06:22:06;3.90;;;1.30;;
18214;SDS011;9233;51.312;6.512;2022-07-22T06:24:54;3.30;;;1.10;;
18214;SDS011;9233;51.312;6.512;2022-07-22T06:27:42;2.20;;;1.13;;
18214;SDS011;9233;51.312;6.512;2022-07-22T06:30:28;1.87;;;0.90;;
18214;SDS011;9233;51.312;6.512;2022-07-22T06:33:15;2.60;;;0.83;;
18214;SDS011;9233;51.312;6.512;2022-07-22T06:36:02;1.30;;;0.90;;
18214;SDS011;9233;51.312;6.512;2022-07-22T06:38:50;3.13;;;1.23;;
18214;SDS011;9233;51.312;6.512;2022-07-22T06:41:56;2.60;;;1.10;;
18214;SDS011;9233;51.312;6.512;2022-07-22T06:45:07;2.00;;;1.00;;
18214;SDS011;9233;51.312;6.512;2022-07-22T06:48:13;2.23;;;1.07;;
18214;SDS011;9233;51.312;6.512;2022-07-22T06:51:00;4.30;;;1.00;;
18214;SDS011;9233;51.312;6.512;2022-07-22T06:53:49;3.80;;;1.00;;
18214;SDS011;9233;51.312;6.512;2022-07-22T06:56:36;7.20;;;1.10;;
18214;SDS011;9233;51.312;6.512;2022-07-22T06:59:25;5.20;;;1.13;;
18214;SDS011;9233;51.312;6.512;2022-07-22T07:02:12;5.27;;;1.70;;
18214;SDS011;9233;51.312;6.512;2022-07-22T07:04:59;4.43;;;1.30;;
18214;SDS011;9233;51.312;6.512;2022-07-22T07:07:46;3.13;;;1.10;;
18214;SDS011;9233;51.312;6.512;2022-07-22T07:10:33;3.00;;;1.27;;
18214;SDS011;9233;51.312;6.512;2022-07-22T07:13:25;4.70;;;1.10;;
18214;SDS011;9233;51.312;6.512;2022-07-22T07:16:13;2.27;;;1.20;;
18214;SDS011;9233;51.312;6.512;2022-07-22T07:19:01;1.57;;;1.10;;
18214;SDS011;9233;51.312;6.512;2022-07-22T07:21:47;5.43;;;1.50;;
18214;SDS011;9233;51.312;6.512;2022-07-22T07:24:34;2.93;;;0.97;;
18214;SDS011;9233;51.312;6.512;2022-07-22T07:27:21;4.33;;;1.03;;
18214;SDS011;9233;51.312;6.512;2022-07-22T07:30:11;4.40;;;1.20;;
18214;SDS011;9233;51.312;6.512;2022-07-22T07:32:59;3.73;;;1.40;;
18214;SDS011;9233;51.312;6.512;2022-07-22T07:35:46;2.80;;;0.90;;
18214;SDS011;9233;51.312;6.512;2022-07-22T07:38:38;2.10;;;0.90;;
18214;SDS011;9233;51.312;6.512;2022-07-22T07:41:29;2.50;;;0.90;;
18214;SDS011;9233;51.312;6.512;2022-07-22T07:44:16;4.07;;;1.00;;
18214;SDS011;9233;51.312;6.512;2022-07-22T07:47:02;2.27;;;1.40;;
18214;SDS011;9233;51.312;6.512;2022-07-22T07:49:52;2.33;;;0.90;;
18214;SDS011;9233;51.312;6.512;2022-07-22T07:52:38;2.30;;;0.90;;
18214;SDS011;9233;51.312;6.512;2022-07-22T07:55:26;2.87;;;0.90;;
18214;SDS011;9233;51.312;6.512;2022-07-22T07:58:13;3.00;;;0.93;;
18214;SDS011;9233;51.312;6.512;2022-07-22T08:01:00;5.37;;;1.03;;
18214;SDS011;9233;51.312;6.512;2022-07-22T08:03:47;1.00;;;0.80;;
18214;SDS011;9233;51.312;6.512;2022-07-22T08:06:36;2.33;;;0.87;;
18214;SDS011;9233;51.312;6.512;2022-07-22T08:09:23;1.83;;;0.90;;
18214;SDS011;9233;51.312;6.512;2022-07-22T08:12:10;3.33;;;0.80;;
18214;SDS011;9233;51.312;6.512;2022-07-22T08:15:10;2.50;;;0.80;;
18214;SDS011;9233;51.312;6.512;2022-07-22T08:18:15;3.43;;;1.00;;
18214;SDS011;9233;51.312;6.512;2022-07-22T08:21:02;4.43;;;1.37;;
18214;SDS011;9233;51.312;6.512;2022-07-22T08:24:09;2.10;;;0.80;;
18214;SDS011;9233;51.312;6.512;2022-07-22T08:26:56;1.23;;;0.70;;
18214;SDS011;9233;51.312;6.512;2022-07-22T08:29:42;2.40;;;0.80;;
18214;SDS011;9233;51.312;6.512;2022-07-22T08:32:29;3.57;;;0.90;;
18214;SDS011;9233;51.312;6.512;2022-07-22T08:35:16;4.10;;;1.00;;
18214;SDS011;9233;51.312;6.512;2022-07-22T08:38:04;2.97;;;1.13;;
18214;SDS011;9233;51.312;6.512;2022-07-22T08:40:54;1.70;;;0.97;;
18214;SDS011;9233;51.312;6.512;2022-07-22T08:43:41;2.83;;;0.83;;
18214;SDS011;9233;51.312;6.512;2022-07-22T08:46:29;1.97;;;1.00;;
18214;SDS011;9233;51.312;6.512;2022-07-22T08:49:39;3.27;;;1.20;;
18214;SDS011;9233;51.312;6.512;2022-07-22T08:52:44;1.17;;;0.70;;
18214;SDS011;9233;51.312;6.512;2022-07-22T08:55:31;4.83;;;1.00;;
18214;SDS011;9233;51.312;6.512;2022-07-22T08:58:19;2.97;;;0.90;;
18214;SDS011;9233;51.312;6.512;2022-07-22T09:01:07;3.33;;;1.23;;
18214;SDS011;9233;51.312;6.512;2022-07-22T09:03:59;2.60;;;1.63;;
18214;SDS011;9233;51.312;6.512;2022-07-22T09:06:51;3.83;;;1.70;;
18214;SDS011;9233;51.312;6.512;2022-07-22T09:09:37;4.17;;;2.00;;
18214;SDS011;9233;51.312;6.512;2022-07-22T09:12:51;5.33;;;1.77;;
18214;SDS011;9233;51.312;6.512;2022-07-22T09:15:59;1.93;;;1.23;;
18214;SDS011;9233;51.312;6.512;2022-07-22T09:19:05;1.53;;;1.10;;
18214;SDS011;9233;51.312;6.512;2022-07-22T09:22:30;3.07;;;1.37;;
18214;SDS011;9233;51.312;6.512;2022-07-22T09:25:24;2.37;;;1.17;;
18214;SDS011;9233;51.312;6.512;2022-07-22T09:28:53;4.57;;;1.80;;
18214;SDS011;9233;51.312;6.512;2022-07-22T09:31:49;3.70;;;1.50;;
18214;SDS011;9233;51.312;6.512;2022-07-22T09:35:05;3.20;;;1.77;;
18214;SDS011;9233;51.312;6.512;2022-07-22T09:38:05;2.50;;;1.53;;
18214;SDS011;9233;51.312;6.512;2022-07-22T09:40:54;4.33;;;1.60;;
18214;SDS011;9233;51.312;6.512;2022-07-22T09:43:40;2.20;;;1.30;;
18214;SDS011;9233;51.312;6.512;2022-07-22T09:46:36;3.57;;;1.40;;
18214;SDS011;9233;51.312;6.512;2022-07-22T09:50:00;3.23;;;1.70;;
18214;SDS011;9233;51.312;6.512;2022-07-22T09:53:03;5.40;;;2.30;;
18214;SDS011;9233;51.312;6.512;2022-07-22T09:55:54;3.47;;;2.20;;
18214;SDS011;9233;51.312;6.512;2022-07-22T09:58:41;4.63;;;2.70;;
18214;SDS011;9233;51.312;6.512;2022-07-22T10:01:39;4.93;;;2.43;;
18214;SDS011;9233;51.312;6.512;2022-07-22T10:04:26;3.47;;;2.50;;
18214;SDS011;9233;51.312;6.512;2022-07-22T10:07:17;5.33;;;3.20;;
18214;SDS011;9233;51.312;6.512;2022-07-22T10:10:06;5.73;;;3.47;;
18214;SDS011;9233;51.312;6.512;2022-07-22T10:12:55;9.73;;;3.60;;
18214;SDS011;9233;51.312;6.512;2022-07-22T10:15:43;5.10;;;3.57;;
18214;SDS011;9233;51.312;6.512;2022-07-22T10:18:31;7.83;;;3.30;;
18214;SDS011;9233;51.312;6.512;2022-07-22T10:21:19;6.17;;;3.80;;
18214;SDS011;9233;51.312;6.512;2022-07-22T10:24:19;7.33;;;3.60;;
18214;SDS011;9233;51.312;6.512;2022-07-22T10:27:17;5.23;;;3.03;;
18214;SDS011;9233;51.312;6.512;2022-07-22T10:30:31;7.63;;;3.40;;
18214;SDS011;9233;51.312;6.512;2022-07-22T10:33:19;6.90;;;3.77;;
18214;SDS011;9233;51.312;6.512;2022-07-22T10:36:07;6.80;;;3.60;;
18214;SDS011;9233;51.312;6.512;2022-07-22T10:39:03;5.53;;;3.60;;
18214;SDS011;9233;51.312;6.512;2022-07-22T10:41:53;5.00;;;3.23;;
18214;SDS011;9233;51.312;6.512;2022-07-22T10:44:46;4.73;;;3.17;;
18214;SDS011;9233;51.312;6.512;2022-07-22T10:50:38;4.10;;;2.20;;
18214;SDS011;9233;51.312;6.512;2022-07-22T10:53:38;3.23;;;2.23;;
18214;SDS011;9233;51.312;6.512;2022-07-22T10:56:26;1.93;;;1.73;;
18214;SDS011;9233;51.312;6.512;2022-07-22T10:59:16;2.40;;;1.50;;
18214;SDS011;9233;51.312;6.512;2022-07-22T11:02:05;2.23;;;1.73;;
18214;SDS011;9233;51.312;6.512;2022-07-22T11:04:51;2.77;;;1.50;;
18214;SDS011;9233;51.312;6.512;2022-07-22T11:07:40;3.00;;;1.70;;
18214;SDS011;9233;51.312;6.512;2022-07-22T11:10:27;3.70;;;2.13;;
18214;SDS011;9233;51.312;6.512;2022-07-22T11:16:20;1.63;;;1.53;;
18214;SDS011;9233;51.312;6.512;2022-07-22T11:19:08;3.73;;;2.03;;
18214;SDS011;9233;51.312;6.512;2022-07-22T11:21:56;3.23;;;1.97;;
18214;SDS011;9233;51.312;6.512;2022-07-22T11:24:47;3.40;;;1.63;;
18214;SDS011;9233;51.312;6.512;2022-07-22T11:27:35;1.77;;;1.33;;
18214;SDS011;9233;51.312;6.512;2022-07-22T11:30:21;1.83;;;1.67;;
18214;SDS011;9233;51.312;6.512;2022-07-22T11:33:09;2.30;;;1.90;;
18214;SDS011;9233;51.312;6.512;2022-07-22T11:36:01;2.37;;;1.47;;
18214;SDS011;9233;51.312;6.512;2022-07-22T11:38:49;3.00;;;1.97;;
18214;SDS011;9233;51.312;6.512;2022-07-22T11:41:37;2.20;;;1.73;;
18214;SDS011;9233;51.312;6.512;2022-07-22T11:44:25;3.33;;;1.60;;
18214;SDS011;9233;51.312;6.512;2022-07-22T11:47:12;3.40;;;1.67;;
18214;SDS011;9233;51.312;6.512;2022-07-22T11:50:00;4.73;;;2.03;;
18214;SDS011;9233;51.312;6.512;2022-07-22T11:52:51;1.70;;;1.50;;
18214;SDS011;9233;51.312;6.512;2022-07-22T11:55:38;4.33;;;1.60;;
18214;SDS011;9233;51.312;6.512;2022-07-22T11:58:34;2.17;;;1.50;;
18214;SDS011;9233;51.312;6.512;2022-07-22T12:01:23;2.20;;;1.60;;
18214;SDS011;9233;51.312;6.512;2022-07-22T12:04:11;3.20;;;1.47;;
18214;SDS011;9233;51.312;6.512;2022-07-22T12:07:00;4.60;;;1.67;;
18214;SDS011;9233;51.312;6.512;2022-07-22T12:09:48;2.97;;;1.87;;
18214;SDS011;9233;51.312;6.512;2022-07-22T12:12:38;3.70;;;1.80;;
18214;SDS011;9233;51.312;6.512;2022-07-22T12:15:26;3.13;;;1.80;;
18214;SDS011;9233;51.312;6.512;2022-07-22T12:18:16;3.47;;;1.77;;
18214;SDS011;9233;51.312;6.512;2022-07-22T12:21:06;2.53;;;1.60;;
18214;SDS011;9233;51.312;6.512;2022-07-22T12:23:56;2.83;;;1.60;;
18214;SDS011;9233;51.312;6.512;2022-07-22T12:26:44;2.13;;;1.63;;
18214;SDS011;9233;51.312;6.512;2022-07-22T12:29:40;5.47;;;1.87;;
18214;SDS011;9233;51.312;6.512;2022-07-22T12:32:28;2.17;;;1.40;;
18214;SDS011;9233;51.312;6.512;2022-07-22T12:35:15;2.50;;;1.63;;
18214;SDS011;9233;51.312;6.512;2022-07-22T12:38:05;2.33;;;1.80;;
18214;SDS011;9233;51.312;6.512;2022-07-22T12:40:54;4.17;;;1.63;;
18214;SDS011;9233;51.312;6.512;2022-07-22T12:43:40;2.53;;;1.40;;
18214;SDS011;9233;51.312;6.512;2022-07-22T12:46:27;2.60;;;1.43;;
18214;SDS011;9233;51.312;6.512;2022-07-22T12:49:15;3.13;;;1.37;;
18214;SDS011;9233;51.312;6.512;2022-07-22T12:52:07;2.93;;;1.30;;
18214;SDS011;9233;51.312;6.512;2022-07-22T12:54:54;7.50;;;3.30;;
18214;SDS011;9233;51.312;6.512;2022-07-22T12:57:42;4.27;;;1.83;;
18214;SDS011;9233;51.312;6.512;2022-07-22T13:00:30;2.60;;;1.37;;
18214;SDS011;9233;51.312;6.512;2022-07-22T13:03:18;2.23;;;1.30;;
18214;SDS011;9233;51.312;6.512;2022-07-22T13:06:05;1.67;;;1.33;;
18214;SDS011;9233;51.312;6.512;2022-07-22T13:08:51;3.17;;;1.00;;
18214;SDS011;9233;51.312;6.512;2022-07-22T13:11:38;2.47;;;1.30;;
18214;SDS011;9233;51.312;6.512;2022-07-22T13:14:29;3.70;;;1.57;;
18214;SDS011;9233;51.312;6.512;2022-07-22T13:17:16;3.17;;;1.63;;
18214;SDS011;9233;51.312;6.512;2022-07-22T13:20:05;4.37;;;1.67;;
18214;SDS011;9233;51.312;6.512;2022-07-22T13:22:52;2.33;;;1.60;;
18214;SDS011;9233;51.312;6.512;2022-07-22T13:25:39;3.93;;;1.87;;
18214;SDS011;9233;51.312;6.512;2022-07-22T13:28:26;3.73;;;1.70;;
18214;SDS011;9233;51.312;6.512;2022-07-22T13:31:14;2.67;;;1.33;;
18214;SDS011;9233;51.312;6.512;2022-07-22T13:34:00;2.70;;;1.43;;
18214;SDS011;9233;51.312;6.512;2022-07-22T13:36:47;2.33;;;1.20;;
18214;SDS011;9233;51.312;6.512;2022-07-22T13:39:34;1.80;;;1.20;;
18214;SDS011;9233;51.312;6.512;2022-07-22T13:42:20;2.87;;;1.40;;
18214;SDS011;9233;51.312;6.512;2022-07-22T13:45:07;1.67;;;1.30;;
18214;SDS011;9233;51.312;6.512;2022-07-22T13:47:58;2.37;;;1.47;;
18214;SDS011;9233;51.312;6.512;2022-07-22T13:50:44;2.67;;;1.50;;
18214;SDS011;9233;51.312;6.512;2022-07-22T13:53:31;5.47;;;1.40;;
18214;SDS011;9233;51.312;6.512;2022-07-22T13:56:18;2.50;;;1.57;;
18214;SDS011;9233;51.312;6.512;2022-07-22T13:59:05;2.70;;;1.57;;
18214;SDS011;9233;51.312;6.512;2022-07-22T14:01:51;2.03;;;1.30;;
18214;SDS011;9233;51.312;6.512;2022-07-22T14:04:40;3.87;;;1.83;;
18214;SDS011;9233;51.312;6.512;2022-07-22T14:07:26;2.70;;;1.23;;
18214;SDS011;9233;51.312;6.512;2022-07-22T14:10:13;3.00;;;1.37;;
18214;SDS011;9233;51.312;6.512;2022-07-22T14:13:00;1.53;;;1.10;;
18214;SDS011;9233;51.312;6.512;2022-07-22T14:15:47;1.93;;;1.10;;
18214;SDS011;9233;51.312;6.512;2022-07-22T14:18:33;2.73;;;1.50;;
18214;SDS011;9233;51.312;6.512;2022-07-22T14:21:21;1.37;;;1.17;;
18214;SDS011;9233;51.312;6.512;2022-07-22T14:24:08;2.17;;;1.17;;
18214;SDS011;9233;51.312;6.512;2022-07-22T14:26:55;2.77;;;1.20;;
18214;SDS011;9233;51.312;6.512;2022-07-22T14:29:41;2.77;;;1.20;;
18214;SDS011;9233;51.312;6.512;2022-07-22T14:32:28;2.33;;;1.07;;
18214;SDS011;9233;51.312;6.512;2022-07-22T14:35:15;2.57;;;1.47;;
18214;SDS011;9233;51.312;6.512;2022-07-22T14:38:03;1.60;;;1.30;;
18214;SDS011;9233;51.312;6.512;2022-07-22T14:40:49;2.57;;;1.30;;
18214;SDS011;9233;51.312;6.512;2022-07-22T14:43:36;3.83;;;1.50;;
18214;SDS011;9233;51.312;6.512;2022-07-22T14:46:23;2.70;;;1.20;;
18214;SDS011;9233;51.312;6.512;2022-07-22T14:49:09;1.70;;;1.30;;
18214;SDS011;9233;51.312;6.512;2022-07-22T14:51:56;4.23;;;1.30;;
18214;SDS011;9233;51.312;6.512;2022-07-22T14:54:44;3.13;;;1.43;;
18214;SDS011;9233;51.312;6.512;2022-07-22T14:57:30;3.37;;;1.20;;
18214;SDS011;9233;51.312;6.512;2022-07-22T15:00:17;2.43;;;1.10;;
18214;SDS011;9233;51.312;6.512;2022-07-22T15:03:04;2.60;;;1.40;;
18214;SDS011;9233;51.312;6.512;2022-07-22T15:05:50;2.43;;;1.20;;
18214;SDS011;9233;51.312;6.512;2022-07-22T15:08:38;2.50;;;1.27;;
18214;SDS011;9233;51.312;6.512;2022-07-22T15:11:25;1.93;;;1.03;;
18214;SDS011;9233;51.312;6.512;2022-07-22T15:14:12;2.27;;;1.30;;
18214;SDS011;9233;51.312;6.512;2022-07-22T15:16:59;3.77;;;1.30;;
18214;SDS011;9233;51.312;6.512;2022-07-22T15:19:45;3.13;;;1.43;;
18214;SDS011;9233;51.312;6.512;2022-07-22T15:22:32;2.67;;;1.17;;
18214;SDS011;9233;51.312;6.512;2022-07-22T15:25:19;3.17;;;1.27;;
18214;SDS011;9233;51.312;6.512;2022-07-22T15:28:08;3.03;;;1.27;;
18214;SDS011;9233;51.312;6.512;2022-07-22T15:30:55;4.73;;;1.20;;
18214;SDS011;9233;51.312;6.512;2022-07-22T15:33:42;3.37;;;1.40;;
18214;SDS011;9233;51.312;6.512;2022-07-22T15:36:29;1.20;;;1.00;;
18214;SDS011;9233;51.312;6.512;2022-07-22T15:39:16;2.83;;;1.50;;
18214;SDS011;9233;51.312;6.512;2022-07-22T15:42:03;3.63;;;1.20;;
18214;SDS011;9233;51.312;6.512;2022-07-22T15:44:51;1.40;;;1.10;;
18214;SDS011;9233;51.312;6.512;2022-07-22T15:47:38;2.33;;;1.20;;
18214;SDS011;9233;51.312;6.512;2022-07-22T15:50:24;1.40;;;1.23;;
18214;SDS011;9233;51.312;6.512;2022-07-22T15:53:11;3.37;;;1.63;;
18214;SDS011;9233;51.312;6.512;2022-07-22T15:55:58;1.93;;;1.30;;
18214;SDS011;9233;51.312;6.512;2022-07-22T15:58:45;2.27;;;1.40;;
18214;SDS011;9233;51.312;6.512;2022-07-22T16:01:51;2.93;;;1.50;;
18214;SDS011;9233;51.312;6.512;2022-07-22T16:04:37;1.77;;;1.53;;
18214;SDS011;9233;51.312;6.512;2022-07-22T16:07:24;3.13;;;1.53;;
18214;SDS011;9233;51.312;6.512;2022-07-22T16:10:11;2.90;;;1.57;;
18214;SDS011;9233;51.312;6.512;2022-07-22T16:12:57;2.70;;;1.40;;
18214;SDS011;9233;51.312;6.512;2022-07-22T16:15:44;4.17;;;1.77;;
18214;SDS011;9233;51.312;6.512;2022-07-22T16:18:32;4.13;;;1.80;;
18214;SDS011;9233;51.312;6.512;2022-07-22T16:21:19;2.80;;;1.63;;
18214;SDS011;9233;51.312;6.512;2022-07-22T16:24:05;3.30;;;1.60;;
18214;SDS011;9233;51.312;6.512;2022-07-22T16:26:53;3.77;;;1.50;;
18214;SDS011;9233;51.312;6.512;2022-07-22T16:29:39;2.13;;;1.47;;
18214;SDS011;9233;51.312;6.512;2022-07-22T16:32:26;3.93;;;1.50;;
18214;SDS011;9233;51.312;6.512;2022-07-22T16:35:14;2.57;;;1.23;;
18214;SDS011;9233;51.312;6.512;2022-07-22T16:38:01;2.63;;;1.40;;
18214;SDS011;9233;51.312;6.512;2022-07-22T16:40:47;3.13;;;2.13;;
18214;SDS011;9233;51.312;6.512;2022-07-22T16:43:34;3.53;;;1.70;;
18214;SDS011;9233;51.312;6.512;2022-07-22T16:46:21;2.77;;;1.40;;
18214;SDS011;9233;51.312;6.512;2022-07-22T16:49:08;2.47;;;1.57;;
18214;SDS011;9233;51.312;6.512;2022-07-22T16:51:56;2.83;;;1.50;;
18214;SDS011;9233;51.312;6.512;2022-07-22T16:54:42;2.53;;;1.20;;
18214;SDS011;9233;51.312;6.512;2022-07-22T16:57:29;2.23;;;1.50;;
18214;SDS011;9233;51.312;6.512;2022-07-22T17:00:16;2.53;;;1.37;;
18214;SDS011;9233;51.312;6.512;2022-07-22T17:03:03;2.67;;;1.40;;
18214;SDS011;9233;51.312;6.512;2022-07-22T17:05:49;3.17;;;1.37;;
18214;SDS011;9233;51.312;6.512;2022-07-22T17:08:37;2.47;;;1.33;;
18214;SDS011;9233;51.312;6.512;2022-07-22T17:11:24;2.10;;;1.60;;
18214;SDS011;9233;51.312;6.512;2022-07-22T17:14:11;3.33;;;1.70;;
18214;SDS011;9233;51.312;6.512;2022-07-22T17:16:57;2.73;;;1.60;;
18214;SDS011;9233;51.312;6.512;2022-07-22T17:19:44;2.33;;;1.60;;